Time;durP1;ratioP1;P1;durP2;ratioP2;P2;SDS_P1;SDS_P2;PMS_P1;PMS_P2;Temp;Humidity;BMP_temperature;BMP_pressure;BME280_temperature;BME280_humidity;BME280_pressure;Samples;Min_cycle;Max_cycle;Signal;HPM_P1;HPM_P2
2023/01/05 00:00:47;;;;;;;3.52;1.90;;;;;;;8.38;82.85;99515.99;2150619;81;21019;-82
2023/01/05 00:03:48;;;;;;;1.82;1.55;;;;;;;8.30;83.39;99514.17;2147470;81;20970;-80
2023/01/05 00:06:49;;;;;;;3.60;1.62;;;;;;;8.26;83.71;99519.98;2159374;81;21002;-83
2023/01/05 00:09:50;;;;;;;4.03;1.82;;;;;;;8.21;84.22;99502.47;2167833;81;21025;-83
2023/01/05 00:22:54;;;;;;;;;;;;;;;8.12;85.04;99477.05;2170295;81;21074;-81
2023/01/05 00:25:55;;;;;;;;;;;;;;;8.09;85.05;99465.81;2152448;81;20180;-83
2023/01/05 00:28:56;;;;;;;2.77;1.90;;;;;;;8.09;85.23;99455.74;2157464;81;20115;-82
2023/01/05 00:31:57;;;;;;;2.35;1.87;;;;;;;8.07;85.38;99449.80;2154085;81;20978;-82
2023/01/05 00:35:00;;;;;;;3.40;2.15;;;;;;;8.04;85.57;99442.20;2155115;81;20986;-84
2023/01/05 00:38:01;;;;;;;2.60;1.47;;;;;;;8.02;85.80;99445.50;2157654;81;21056;-85
2023/01/05 00:41:03;;;;;;;2.70;1.70;;;;;;;8.00;85.91;99443.04;2148907;81;21454;-80
2023/01/05 00:44:04;;;;;;;1.87;1.77;;;;;;;7.98;86.09;99434.45;2162751;81;20973;-84
2023/01/05 00:47:06;;;;;;;2.37;1.80;;;;;;;7.98;86.04;99428.34;2189726;80;21025;-80
2023/01/05 00:50:11;;;;;;;2.45;2.10;;;;;;;7.96;86.20;99425.85;2207588;80;21464;-84
2023/01/05 00:53:12;;;;;;;2.37;1.82;;;;;;;7.97;86.15;99426.20;2189615;80;21005;-83
2023/01/05 00:56:14;;;;;;;3.70;1.80;;;;;;;7.96;86.16;99417.92;2199191;80;20963;-82
2023/01/05 00:59:16;;;;;;;1.62;1.52;;;;;;;7.95;86.26;99422.89;2210269;80;21004;-82
2023/01/05 01:02:17;;;;;;;1.77;1.60;;;;;;;7.95;86.24;99420.25;2205229;80;20942;-83
2023/01/05 01:05:20;;;;;;;2.37;1.80;;;;;;;7.96;86.43;99421.07;2200609;78;21590;-83
2023/01/05 01:08:21;;;;;;;1.95;1.85;;;;;;;7.98;86.41;99419.09;2204789;80;20965;-83
2023/01/05 01:11:22;;;;;;;3.10;1.90;;;;;;;7.99;86.36;99418.09;2208555;80;20961;-83
2023/01/05 01:14:24;;;;;;;4.62;1.80;;;;;;;7.98;86.44;99411.98;2204417;80;21064;-82
2023/01/05 01:17:26;;;;;;;1.87;1.50;;;;;;;7.99;86.51;99404.88;2201175;80;20993;-82
2023/01/05 01:20:27;;;;;;;2.52;1.60;;;;;;;7.99;86.52;99409.66;2198793;80;21012;-86
2023/01/05 01:23:28;;;;;;;1.70;1.60;;;;;;;8.00;86.61;99401.27;2206767;80;20979;-81
2023/01/05 01:26:30;;;;;;;2.00;1.50;;;;;;;7.99;86.57;99391.17;2196911;79;21721;-82
2023/01/05 01:29:31;;;;;;;1.47;1.12;;;;;;;8.00;86.62;99399.95;2187861;80;21024;-83
2023/01/05 01:32:32;;;;;;;1.22;1.12;;;;;;;8.01;86.85;99401.09;2200950;80;21004;-82
2023/01/05 01:35:37;;;;;;;2.17;1.20;;;;;;;8.03;86.86;99397.79;2199504;79;21015;-82
2023/01/05 01:38:38;;;;;;;1.30;1.20;;;;;;;8.07;86.92;99387.20;2209552;80;20945;-84
2023/01/05 01:41:40;;;;;;;4.42;1.00;;;;;;;8.12;86.90;99395.95;2207095;80;21079;-81
2023/01/05 01:44:50;;;;;;;1.62;0.75;;;;;;;8.21;86.83;99392.79;2202204;80;21517;-83
2023/01/05 01:48:00;;;;;;;4.95;1.17;;;;;;;8.31;86.61;99388.97;2202240;79;21061;-85
2023/01/05 01:51:12;;;;;;;1.45;0.90;;;;;;;8.51;85.83;99392.07;2207507;80;21064;-86
2023/01/05 01:54:16;;;;;;;4.15;1.52;;;;;;;8.68;85.56;99382.75;2199401;79;21009;-85
2023/01/05 01:57:18;;;;;;;2.08;1.35;;;;;;;8.73;84.74;99384.39;2198509;80;21509;-86
2023/01/05 02:00:20;;;;;;;3.58;1.17;;;;;;;8.79;84.46;99373.61;2191317;80;21135;-81
2023/01/05 02:03:24;;;;;;;4.05;1.35;;;;;;;8.90;83.97;99375.36;2205432;80;21057;-83
2023/01/05 02:06:26;;;;;;;4.12;1.37;;;;;;;9.09;82.77;99381.20;2194004;80;21001;-83
2023/01/05 02:09:27;;;;;;;4.00;1.42;;;;;;;9.24;81.92;99378.13;2181512;80;21458;-82
2023/01/05 02:12:59;;;;;;;2.77;1.00;;;;;;;9.33;82.67;99373.60;2170819;81;20989;-83
2023/01/05 02:16:21;;;;;;;3.95;1.32;;;;;;;9.31;82.34;99378.24;2183634;80;21072;-83
2023/01/05 02:20:06;;;;;;;2.58;1.20;;;;;;;9.30;82.37;99371.31;2188044;80;20973;-84
2023/01/05 02:23:48;;;;;;;3.15;1.50;;;;;;;9.33;82.30;99363.02;2207658;79;20950;-84
2023/01/05 02:27:26;;;;;;;3.83;1.20;;;;;;;9.34;81.96;99344.28;2201345;80;21552;-84
2023/01/05 02:30:46;;;;;;;3.72;1.02;;;;;;;9.36;82.06;99370.59;2207447;80;21924;-80
2023/01/05 02:34:17;;;;;;;7.20;1.57;;;;;;;9.33;82.10;99373.60;2199817;80;21000;-83
2023/01/05 02:37:24;;;;;;;5.12;1.47;;;;;;;9.26;82.39;99376.62;2202528;79;20997;-82
2023/01/05 02:40:31;;;;;;;6.60;1.57;;;;;;;9.22;82.49;99368.21;2204031;80;20958;-83
2023/01/05 02:43:34;;;;;;;3.47;1.50;;;;;;;9.18;82.81;99369.58;2196938;80;21064;-83
2023/01/05 02:46:36;;;;;;;1.70;1.15;;;;;;;9.09;83.32;99363.99;2194923;80;21631;-85
2023/01/05 02:49:40;;;;;;;4.50;1.20;;;;;;;9.05;83.43;99359.56;2188280;80;21021;-83
2023/01/05 02:52:53;;;;;;;4.62;1.25;;;;;;;9.02;83.67;99348.00;2187763;80;21532;-80
2023/01/05 02:56:00;;;;;;;8.05;1.55;;;;;;;9.01;83.62;99346.37;2190028;80;20986;-82
2023/01/05 02:59:24;;;;;;;5.97;1.70;;;;;;;9.01;83.52;99350.81;2190752;80;21004;-84
2023/01/05 03:02:29;;;;;;;2.05;1.35;;;;;;;9.03;83.61;99358.08;2169897;80;21080;-82
2023/01/05 03:05:40;;;;;;;5.70;1.30;;;;;;;9.03;83.55;99347.00;2194151;80;21025;-82
2023/01/05 03:08:56;;;;;;;5.10;1.37;;;;;;;9.00;83.60;99351.31;2187850;80;21120;-82
2023/01/05 03:15:32;;;;;;;4.53;1.30;;;;;;;9.01;83.98;99377.27;2196397;80;21020;-86
2023/01/05 03:19:34;;;;;;;3.22;1.10;;;;;;;8.95;84.08;99387.58;2191638;80;21115;-81
2023/01/05 03:35:32;;;;;;;7.50;1.72;;;;;;;8.60;86.04;99407.91;2192850;80;20997;-85
2023/01/05 03:38:44;;;;;;;4.75;1.60;;;;;;;8.52;86.95;99404.28;2192540;80;21012;-82
2023/01/05 03:41:47;;;;;;;4.53;1.50;;;;;;;8.45;87.07;99409.13;2190521;80;20985;-84
2023/01/05 03:44:49;;;;;;;7.25;1.72;;;;;;;8.40;87.39;99400.88;2204373;80;21013;-82
2023/01/05 03:47:51;;;;;;;7.45;1.80;;;;;;;8.37;87.84;99410.44;2194475;80;21587;-82
2023/01/05 03:50:54;;;;;;;5.03;1.42;;;;;;;8.30;87.95;99417.70;2192236;80;21568;-82
2023/01/05 03:53:56;;;;;;;6.12;1.65;;;;;;;8.27;88.32;99422.50;2173325;80;21006;-84
2023/01/05 03:56:58;;;;;;;5.95;1.50;;;;;;;8.24;88.24;99430.77;2182100;80;21060;-83
2023/01/05 04:00:03;;;;;;;3.77;1.45;;;;;;;8.18;89.50;99446.80;2168127;80;21030;-83
2023/01/05 04:03:07;;;;;;;7.90;0.95;;;;;;;8.02;87.76;99439.71;2182997;80;21030;-85
2023/01/05 04:06:09;;;;;;;3.22;1.10;;;;;;;7.86;87.40;99415.98;2219294;79;20984;-82
2023/01/05 04:09:11;;;;;;;7.00;1.07;;;;;;;7.70;87.74;99406.73;2189355;80;21100;-83
2023/01/05 04:12:13;;;;;;;2.02;0.70;;;;;;;7.55;87.94;99403.94;2181644;79;21026;-82
2023/01/05 04:15:16;;;;;;;7.45;1.35;;;;;;;7.42;87.86;99403.09;2202877;79;21426;-85
2023/01/05 04:18:18;;;;;;;1.72;1.07;;;;;;;7.32;88.10;99395.34;2165765;80;21149;-82
2023/01/05 04:21:20;;;;;;;3.90;1.05;;;;;;;7.26;88.63;99401.74;2179322;80;20977;-83
2023/01/05 04:24:23;;;;;;;2.72;1.10;;;;;;;7.19;89.17;99398.44;2202963;80;21032;-81
2023/01/05 04:27:24;;;;;;;1.35;0.90;;;;;;;7.17;89.39;99401.73;2188677;80;21794;-84
2023/01/05 04:30:26;;;;;;;1.87;0.93;;;;;;;7.16;89.55;99419.05;2185702;81;21025;-82
2023/01/05 04:33:27;;;;;;;1.17;0.70;;;;;;;7.12;90.15;99408.01;2178608;80;20957;-84
2023/01/05 04:36:29;;;;;;;2.20;0.93;;;;;;;7.10;90.33;99406.02;2184506;80;21096;-82
2023/01/05 04:39:31;;;;;;;2.55;0.95;;;;;;;7.09;90.15;99424.13;2185429;80;21546;-81
2023/01/05 04:42:32;;;;;;;4.08;1.47;;;;;;;7.06;90.39;99421.82;2202352;80;20946;-82
2023/01/05 04:45:34;;;;;;;1.72;1.10;;;;;;;7.05;90.64;99413.59;2193637;80;21009;-85
2023/01/05 04:48:36;;;;;;;2.47;0.90;;;;;;;7.04;91.18;99410.62;2199957;80;21052;-85
2023/01/05 04:51:38;;;;;;;6.20;2.70;;;;;;;7.02;90.83;99398.58;2203985;79;21021;-82
2023/01/05 04:54:40;;;;;;;6.70;2.87;;;;;;;7.01;91.12;99396.44;2192421;80;21136;-84
2023/01/05 04:57:43;;;;;;;4.58;1.90;;;;;;;6.99;91.73;99389.17;2199084;80;21048;-85
2023/01/05 05:00:47;;;;;;;5.58;2.50;;;;;;;7.03;91.52;99385.22;2180174;80;21091;-85
2023/01/05 05:03:49;;;;;;;4.53;1.72;;;;;;;7.06;91.47;99398.58;2193832;79;20955;-84
2023/01/05 05:06:52;;;;;;;5.20;1.87;;;;;;;7.09;91.69;99390.34;2191608;80;21025;-84
2023/01/05 05:09:55;;;;;;;5.28;1.98;;;;;;;7.13;91.85;99392.50;2194510;80;21075;-83
2023/01/05 05:12:56;;;;;;;2.95;1.80;;;;;;;7.16;91.97;99391.36;2199457;80;21025;-83
2023/01/05 05:15:57;;;;;;;5.83;2.37;;;;;;;7.18;91.84;99394.16;2203415;80;21121;-83
2023/01/05 05:18:59;;;;;;;3.85;2.00;;;;;;;7.22;91.98;99401.75;2203579;79;21481;-82
2023/01/05 05:22:01;;;;;;;9.85;2.80;;;;;;;7.23;92.01;99402.08;2218072;79;21009;-83
2023/01/05 05:25:02;;;;;;;7.60;2.35;;;;;;;7.25;92.17;99401.42;2190345;80;21003;-82
2023/01/05 05:28:04;;;;;;;5.03;1.72;;;;;;;7.32;92.83;99398.45;2197333;80;21017;-82
2023/01/05 05:31:05;;;;;;;7.17;2.00;;;;;;;7.36;92.97;99394.02;2144391;82;20966;-82
2023/01/05 05:34:06;;;;;;;5.50;2.40;;;;;;;7.43;92.55;99397.31;2198463;80;21064;-82
2023/01/05 05:37:08;;;;;;;2.75;1.35;;;;;;;7.46;92.23;99403.11;2204884;80;21011;-82
2023/01/05 05:40:11;;;;;;;5.03;2.05;;;;;;;7.49;92.02;99396.65;2196563;79;21552;-83
2023/01/05 05:43:12;;;;;;;4.58;1.70;;;;;;;7.52;91.81;99395.03;2192255;80;21020;-83
2023/01/05 05:46:14;;;;;;;8.48;1.70;;;;;;;7.54;91.62;99403.59;2197578;80;21068;-85
2023/01/05 05:49:15;;;;;;;3.98;1.60;;;;;;;7.56;91.33;99404.25;2202596;79;21001;-84
2023/01/05 05:52:16;;;;;;;4.80;1.50;;;;;;;7.58;91.18;99414.98;2201325;80;21844;-82
2023/01/05 05:55:17;;;;;;;6.53;1.35;;;;;;;7.60;90.91;99409.05;2206184;80;20938;-82
2023/01/05 05:58:19;;;;;;;3.15;1.20;;;;;;;7.61;90.75;99418.61;2193404;80;21522;-85
2023/01/05 06:01:20;;;;;;;4.42;1.65;;;;;;;7.61;90.57;99409.38;2170775;80;20985;-85
2023/01/05 06:04:21;;;;;;;5.70;1.40;;;;;;;7.63;90.46;99414.00;2199086;79;21563;-80
2023/01/05 06:07:23;;;;;;;6.58;1.67;;;;;;;7.62;90.40;99424.71;2199222;79;21043;-83
2023/01/05 06:10:24;;;;;;;4.55;1.22;;;;;;;7.60;90.30;99413.02;2204762;80;21009;-80
2023/01/05 06:13:26;;;;;;;5.22;1.42;;;;;;;7.61;90.28;99414.66;2213401;79;21012;-85
2023/01/05 06:16:26;;;;;;;5.78;1.20;;;;;;;7.60;90.20;99420.08;2201696;80;20989;-82
2023/01/05 06:19:28;;;;;;;3.35;1.10;;;;;;;7.57;90.20;99417.30;2201895;79;20982;-84
2023/01/05 06:22:29;;;;;;;5.30;1.72;;;;;;;7.57;90.20;99425.23;2203416;80;21526;-85
2023/01/05 06:25:31;;;;;;;5.95;2.10;;;;;;;7.57;90.24;99404.11;2194023;80;20993;-82
2023/01/05 06:28:32;;;;;;;5.00;2.35;;;;;;;7.58;90.10;99426.05;2193226;80;21000;-82
2023/01/05 06:31:34;;;;;;;6.85;2.70;;;;;;;7.56;90.07;99424.88;2200080;80;21043;-82
2023/01/05 06:34:35;;;;;;;5.45;2.27;;;;;;;7.57;90.13;99425.23;2206410;80;21040;-81
2023/01/05 06:37:36;;;;;;;4.42;1.82;;;;;;;7.59;90.08;99427.19;2200301;79;21468;-79
2023/01/05 06:40:43;;;;;;;5.30;1.95;;;;;;;7.58;90.20;99422.91;2199133;79;21043;-83
2023/01/05 06:43:44;;;;;;;4.08;1.82;;;;;;;7.58;90.10;99429.50;2205318;80;21025;-84
2023/01/05 06:46:45;;;;;;;7.45;2.30;;;;;;;7.58;90.21;99436.61;2202958;79;21014;-83
2023/01/05 06:49:47;;;;;;;4.37;2.35;;;;;;;7.58;90.13;99445.34;2196267;79;21011;-82
2023/01/05 06:52:48;;;;;;;2.70;1.52;;;;;;;7.58;90.17;99441.89;2196606;79;21076;-84
2023/01/05 06:55:49;;;;;;;3.87;1.70;;;;;;;7.57;90.23;99442.39;2204076;80;20989;-84
2023/01/05 06:58:50;;;;;;;6.47;1.70;;;;;;;7.57;90.17;99458.23;2200405;79;21061;-83
2023/01/05 07:01:52;;;;;;;4.17;1.80;;;;;;;7.55;90.18;99452.77;2204245;79;21013;-81
2023/01/05 07:04:53;;;;;;;4.50;2.47;;;;;;;7.54;90.27;99447.14;2199048;80;20950;-85
2023/01/05 07:07:54;;;;;;;7.80;2.40;;;;;;;7.54;90.14;99449.78;2194278;80;20988;-83
2023/01/05 07:10:55;;;;;;;9.63;1.82;;;;;;;7.54;90.06;99453.25;2197156;80;21020;-84
2023/01/05 07:13:56;;;;;;;7.58;2.22;;;;;;;7.54;90.00;99454.56;2195087;80;21622;-81
2023/01/05 07:16:57;;;;;;;3.17;1.67;;;;;;;7.55;89.99;99448.81;2200312;79;21004;-83
2023/01/05 07:19:59;;;;;;;8.45;2.10;;;;;;;7.55;89.91;99453.59;2202899;80;21580;-83
2023/01/05 07:23:00;;;;;;;8.40;2.10;;;;;;;7.56;89.83;99459.20;2195898;80;20966;-84
2023/01/05 07:26:01;;;;;;;5.00;2.10;;;;;;;7.59;89.81;99458.05;2203290;79;21566;-84
2023/01/05 07:29:02;;;;;;;4.58;1.82;;;;;;;7.61;89.81;99452.94;2202796;80;21044;-82
2023/01/05 07:32:04;;;;;;;6.10;2.37;;;;;;;7.62;89.74;99455.89;2191700;80;20973;-82
2023/01/05 07:35:06;;;;;;;6.62;2.75;;;;;;;7.65;89.73;99452.11;2194230;80;20972;-81
2023/01/05 07:38:07;;;;;;;8.53;2.58;;;;;;;7.67;89.73;99455.41;2201426;80;21155;-83
2023/01/05 07:41:09;;;;;;;6.40;2.50;;;;;;;7.67;89.72;99458.05;2202863;80;21056;-79
2023/01/05 07:44:10;;;;;;;8.30;2.77;;;;;;;7.70;89.71;99459.05;2201562;80;21155;-84
2023/01/05 07:47:11;;;;;;;12.35;2.72;;;;;;;7.73;89.69;99461.86;2205026;80;20942;-83
2023/01/05 07:50:13;;;;;;;6.05;1.92;;;;;;;7.77;89.70;99460.52;2205179;80;21036;-83
2023/01/05 07:53:14;;;;;;;5.15;2.17;;;;;;;7.79;89.73;99460.69;2199755;80;21556;-83
2023/01/05 07:56:15;;;;;;;7.28;2.77;;;;;;;7.84;89.68;99461.53;2191188;79;21000;-83
2023/01/05 07:59:16;;;;;;;5.25;2.17;;;;;;;7.86;89.61;99468.30;2196717;80;21544;-81
2023/01/05 08:02:18;;;;;;;8.68;2.10;;;;;;;7.89;89.58;99467.66;2203284;80;21063;-84
2023/01/05 08:05:19;;;;;;;6.53;2.25;;;;;;;7.91;89.62;99465.14;2201085;80;21685;-82
2023/01/05 08:08:21;;;;;;;5.17;2.17;;;;;;;7.95;89.61;99466.98;2198942;80;21045;-84
2023/01/05 08:11:22;;;;;;;7.83;2.40;;;;;;;8.00;89.58;99468.64;2195030;80;21536;-84
2023/01/05 08:14:23;;;;;;;6.92;2.60;;;;;;;8.00;89.47;99458.89;2200651;80;21001;-83
2023/01/05 08:17:24;;;;;;;7.40;2.67;;;;;;;8.04;89.50;99455.41;2200667;80;21635;-86
2023/01/05 08:20:25;;;;;;;7.45;2.30;;;;;;;8.08;89.31;99466.81;2192022;80;20981;-84
2023/01/05 08:23:27;;;;;;;6.90;2.10;;;;;;;8.14;89.23;99469.76;2186796;79;20985;-85
2023/01/05 08:26:28;;;;;;;7.72;2.27;;;;;;;8.19;89.17;99464.80;2198294;79;21048;-84
2023/01/05 08:29:29;;;;;;;4.95;2.08;;;;;;;8.27;88.79;99456.86;2201816;80;21421;-80
2023/01/05 08:32:31;;;;;;;6.87;2.08;;;;;;;8.32;88.90;99467.77;2178832;80;21652;-78
2023/01/05 08:35:33;;;;;;;7.83;2.42;;;;;;;8.34;88.55;99462.32;2202313;79;20977;-80
2023/01/05 08:38:34;;;;;;;8.93;2.55;;;;;;;8.40;88.56;99464.32;2198538;79;21499;-84
2023/01/05 08:41:37;;;;;;;4.30;2.33;;;;;;;8.44;88.46;99469.58;2199066;79;20969;-80
2023/01/05 08:44:38;;;;;;;10.45;2.65;;;;;;;8.45;88.13;99462.82;2196544;80;21579;-84
2023/01/05 08:47:40;;;;;;;8.35;2.10;;;;;;;8.47;88.14;99474.03;2196445;79;21527;-82
2023/01/05 08:50:41;;;;;;;8.25;2.30;;;;;;;8.52;87.92;99471.71;2190275;80;21561;-83
2023/01/05 08:53:43;;;;;;;10.03;3.00;;;;;;;8.55;87.82;99473.70;2182906;80;20993;-84
2023/01/05 08:56:44;;;;;;;8.98;2.17;;;;;;;8.59;87.37;99482.45;2185441;80;21512;-81
2023/01/05 08:59:46;;;;;;;3.85;2.10;;;;;;;8.67;87.10;99480.27;2188420;80;20966;-85
2023/01/05 09:02:48;;;;;;;8.45;2.47;;;;;;;8.75;86.91;99483.70;2197704;80;20994;-82
2023/01/05 09:05:52;;;;;;;9.03;2.27;;;;;;;8.77;86.43;99484.05;2204598;80;21036;-85
2023/01/05 09:08:54;;;;;;;8.63;2.70;;;;;;;8.78;86.09;99480.40;2202757;80;20973;-81
2023/01/05 09:11:55;;;;;;;6.37;1.98;;;;;;;8.77;85.87;99478.77;2199401;79;21453;-83
2023/01/05 09:14:57;;;;;;;6.03;2.10;;;;;;;8.75;85.61;99487.67;2186022;80;21592;-84
2023/01/05 09:17:58;;;;;;;10.70;2.20;;;;;;;8.70;85.73;99488.70;2201394;80;20970;-82
2023/01/05 09:20:59;;;;;;;7.10;2.22;;;;;;;8.70;85.45;99478.13;2201174;80;21001;-83
2023/01/05 09:24:01;;;;;;;4.85;1.75;;;;;;;8.75;85.73;99487.67;2204255;80;20977;-82
2023/01/05 09:27:04;;;;;;;8.35;2.08;;;;;;;8.78;85.68;99485.19;2187567;80;21005;-80
2023/01/05 09:30:07;;;;;;;5.22;2.02;;;;;;;8.79;84.90;99483.39;2194731;79;21492;-83
2023/01/05 09:33:08;;;;;;;10.25;2.25;;;;;;;8.79;85.01;99492.15;2200790;79;21017;-84
2023/01/05 09:36:10;;;;;;;7.45;2.87;;;;;;;8.77;84.99;99492.80;2198344;80;21494;-79
2023/01/05 09:39:12;;;;;;;8.78;2.37;;;;;;;8.70;85.12;99494.47;2193087;79;20976;-85
2023/01/05 09:42:18;;;;;;;6.42;2.15;;;;;;;8.63;85.49;99501.45;2202315;79;21064;-84
2023/01/05 09:45:27;;;;;;;5.28;1.90;;;;;;;8.53;85.93;99509.08;2195194;79;21064;-86
2023/01/05 09:48:34;;;;;;;6.55;2.20;;;;;;;8.46;86.36;99517.84;2199183;80;21020;-84
2023/01/05 09:51:35;;;;;;;10.93;2.58;;;;;;;8.38;86.92;99515.99;2200683;80;21014;-83
2023/01/05 09:54:39;;;;;;;8.48;2.33;;;;;;;8.35;87.04;99522.12;2184725;80;21060;-84
2023/01/05 09:57:41;;;;;;;9.03;2.55;;;;;;;8.33;87.31;99524.91;2197698;80;21543;-87
2023/01/05 10:00:47;;;;;;;4.92;2.25;;;;;;;8.31;87.44;99533.53;2208366;80;20973;-85
2023/01/05 10:04:00;;;;;;;6.58;2.17;;;;;;;8.32;87.65;99539.13;2188543;80;21009;-85
2023/01/05 10:07:09;;;;;;;7.72;2.52;;;;;;;8.30;87.70;99530.03;2168507;81;21013;-87
2023/01/05 10:10:37;;;;;;;18.82;8.15;;;;;;;8.31;87.82;99533.53;2169486;80;21539;-87
2023/01/05 10:13:43;;;;;;;4.40;2.10;;;;;;;8.30;87.72;99530.03;2206901;80;21582;-83
2023/01/05 10:16:45;;;;;;;8.43;2.77;;;;;;;8.30;87.58;99519.46;2182980;80;21016;-86
2023/01/05 10:19:48;;;;;;;5.85;2.25;;;;;;;8.33;87.61;99524.91;2197971;80;21019;-86
2023/01/05 10:23:29;;;;;;;8.55;2.15;;;;;;;8.40;87.60;99523.30;2199098;79;21024;-84
2023/01/05 10:27:06;;;;;;;5.67;2.02;;;;;;;8.46;87.67;99531.88;2195350;79;21453;-83
2023/01/05 10:30:24;;;;;;;9.68;2.62;;;;;;;8.46;87.82;99529.23;2203221;80;21009;-85
2023/01/05 10:33:53;;;;;;;9.03;2.72;;;;;;;8.42;87.81;99523.11;2197556;80;21456;-81
2023/01/05 10:37:08;;;;;;;8.35;2.70;;;;;;;8.33;88.04;99527.56;2199942;79;21004;-84
2023/01/05 10:40:21;;;;;;;8.23;2.40;;;;;;;8.21;88.38;99528.89;2187043;80;21478;-82
2023/01/05 10:43:41;;;;;;;7.95;2.42;;;;;;;8.10;88.74;99557.80;2182680;80;20989;-83
2023/01/05 10:46:46;;;;;;;4.72;2.25;;;;;;;7.99;89.18;99557.61;2169664;81;21045;-85
2023/01/05 10:49:47;;;;;;;3.20;1.50;;;;;;;7.75;87.35;99554.96;2179030;81;20988;-82
2023/01/05 10:52:49;;;;;;;4.12;1.55;;;;;;;7.54;87.18;99573.37;2170163;81;20949;-85
2023/01/05 10:56:17;;;;;;;7.03;1.30;;;;;;;7.35;87.03;99572.34;2185880;81;21033;-85
2023/01/05 10:59:18;;;;;;;3.80;1.10;;;;;;;7.17;87.03;99581.64;2192774;80;21610;-82
2023/01/05 11:02:19;;;;;;;2.45;1.00;;;;;;;6.99;87.09;99587.01;2196291;80;21368;-81
2023/01/05 11:05:35;;;;;;;2.98;0.90;;;;;;;6.85;86.14;99580.99;2194147;80;20985;-82
2023/01/05 11:08:37;;;;;;;1.50;0.90;;;;;;;6.79;86.54;99584.26;2196401;80;21004;-82
2023/01/05 11:11:39;;;;;;;0.78;0.78;;;;;;;6.74;86.15;99583.39;2195113;80;20974;-82
2023/01/05 11:14:43;;;;;;;0.60;0.57;;;;;;;6.72;85.26;99582.71;2196097;80;20945;-82
2023/01/05 11:17:45;;;;;;;0.68;0.50;;;;;;;6.71;85.56;99579.75;2203863;80;20942;-85
2023/01/05 11:21:10;;;;;;;1.25;0.90;;;;;;;6.67;84.97;99563.42;2198199;79;21075;-83
2023/01/05 11:24:33;;;;;;;2.12;0.85;;;;;;;6.67;85.17;99557.30;2194846;80;21096;-84
2023/01/05 11:27:36;;;;;;;1.15;0.80;;;;;;;6.65;85.18;99546.10;2200044;80;21124;-81
2023/01/05 11:30:55;;;;;;;1.37;1.10;;;;;;;6.63;85.47;99563.38;2159845;80;22225;-81
2023/01/05 11:33:59;;;;;;;1.67;1.15;;;;;;;6.63;85.90;99565.19;2188452;80;21076;-82
2023/01/05 11:37:21;;;;;;;2.08;1.00;;;;;;;6.60;86.26;99576.88;2204840;80;21467;-84
2023/01/05 11:40:27;;;;;;;1.90;1.17;;;;;;;6.58;86.69;99576.19;2204423;80;22211;-83
2023/01/05 11:43:30;;;;;;;4.65;1.40;;;;;;;6.56;87.17;99587.41;2203237;80;21580;-83
2023/01/05 11:46:42;;;;;;;2.22;1.07;;;;;;;6.50;87.61;99557.21;2200403;80;21020;-81
2023/01/05 11:49:44;;;;;;;2.25;1.30;;;;;;;6.49;87.97;99562.62;2202670;79;20965;-80
2023/01/05 11:52:49;;;;;;;3.40;1.70;;;;;;;6.49;88.05;99569.21;2203429;80;21493;-83
2023/01/05 11:56:21;;;;;;;3.50;1.85;;;;;;;6.50;88.40;99584.89;2201556;79;21480;-81
2023/01/05 11:59:28;;;;;;;6.22;2.65;;;;;;;6.58;88.96;99590.69;2196430;80;21028;-84
2023/01/05 12:03:03;;;;;;;4.05;2.40;;;;;;;6.68;89.26;99582.70;2209358;80;20977;-84
2023/01/05 12:06:37;;;;;;;6.17;2.70;;;;;;;6.77;89.18;99580.94;2198267;79;21049;-82
2023/01/05 12:09:58;;;;;;;4.20;2.10;;;;;;;6.82;89.17;99578.67;2204320;79;20969;-83
2023/01/05 12:13:32;;;;;;;5.78;3.02;;;;;;;6.95;89.60;99586.50;2203863;80;21044;-82
2023/01/05 12:16:47;;;;;;;6.15;2.30;;;;;;;7.12;89.93;99591.38;2199005;79;20981;-82
2023/01/05 12:19:59;;;;;;;3.08;2.08;;;;;;;7.28;89.77;99597.20;2204337;80;20959;-83
2023/01/05 12:23:26;;;;;;;1.77;1.45;;;;;;;7.43;90.01;99613.25;2202329;79;21021;-84
2023/01/05 12:27:11;;;;;;;2.30;1.40;;;;;;;7.50;89.62;99621.39;2196564;80;21491;-82
2023/01/05 12:30:27;;;;;;;1.82;1.70;;;;;;;7.50;89.47;99624.84;2137653;80;21046;-81
2023/01/05 12:33:42;;;;;;;2.50;1.30;;;;;;;7.57;89.74;99611.36;2204226;79;21642;-82
2023/01/05 12:36:52;;;;;;;4.40;1.70;;;;;;;7.56;89.48;99594.34;2196976;79;21488;-80
2023/01/05 12:40:11;;;;;;;3.35;1.85;;;;;;;7.52;89.13;99601.77;2123246;82;21025;-81
2023/01/05 12:43:47;;;;;;;3.15;1.75;;;;;;;7.51;89.32;99598.77;2118424;83;21069;-81
2023/01/05 12:47:19;;;;;;;5.22;1.90;;;;;;;7.54;89.31;99598.45;2095147;82;21086;-82
2023/01/05 12:50:47;;;;;;;4.20;1.60;;;;;;;7.54;89.08;99601.59;2070791;83;20991;-85
2023/01/05 12:54:02;;;;;;;2.83;1.85;;;;;;;7.54;89.11;99593.17;2110571;82;21486;-85
2023/01/05 12:57:24;;;;;;;4.25;2.00;;;;;;;7.62;89.44;99607.72;2125508;83;21511;-82
2023/01/05 13:00:30;;;;;;;4.30;2.60;;;;;;;7.70;89.42;99612.70;2119609;83;21048;-85
2023/01/05 13:03:37;;;;;;;3.83;1.90;;;;;;;7.77;89.87;99603.99;2145422;80;21064;-83
2023/01/05 13:06:42;;;;;;;4.28;2.35;;;;;;;8.05;90.07;99600.58;2153418;80;21036;-83
2023/01/05 13:09:47;;;;;;;5.67;1.90;;;;;;;8.25;89.98;99600.24;2151165;80;21120;-81
2023/01/05 13:12:59;;;;;;;4.35;2.00;;;;;;;8.28;88.59;99603.41;2144596;80;21536;-83
2023/01/05 13:16:24;;;;;;;1.95;1.40;;;;;;;8.28;88.12;99586.73;2150921;80;20944;-82
2023/01/05 13:19:34;;;;;;;3.10;1.47;;;;;;;8.31;87.41;99603.58;2148633;80;21304;-84
2023/01/05 13:22:39;;;;;;;4.37;1.50;;;;;;;8.25;86.80;99579.09;2151364;80;21064;-85
2023/01/05 13:25:49;;;;;;;3.92;1.37;;;;;;;8.20;85.69;99591.50;2145029;80;21418;-86
2023/01/05 13:28:54;;;;;;;6.17;1.90;;;;;;;8.19;85.68;99594.30;2150696;79;21072;-83
2023/01/05 13:32:10;;;;;;;3.65;1.50;;;;;;;8.18;85.87;99588.69;2149891;80;21543;-83
2023/01/05 13:35:35;;;;;;;3.00;1.87;;;;;;;8.15;85.67;99585.06;2150457;80;20990;-80
2023/01/05 13:39:05;;;;;;;3.87;2.10;;;;;;;8.13;85.01;99573.31;2142300;80;21000;-83
2023/01/05 13:42:26;;;;;;;5.25;1.90;;;;;;;8.14;85.29;99581.59;2152483;80;21004;-85
2023/01/05 13:46:11;;;;;;;4.08;1.92;;;;;;;8.12;85.41;99595.46;2154161;80;21074;-84
2023/01/05 13:49:39;;;;;;;2.95;1.55;;;;;;;8.07;85.82;99589.33;2165970;80;20964;-85
2023/01/05 13:53:04;;;;;;;4.65;1.80;;;;;;;7.98;86.08;99600.89;2160868;81;20996;-85
2023/01/05 13:56:16;;;;;;;5.10;1.92;;;;;;;7.90;86.38;99611.44;2160215;81;21509;-83
2023/01/05 13:59:29;;;;;;;6.33;2.50;;;;;;;7.77;86.76;99611.91;2164115;81;20938;-84
2023/01/05 14:02:39;;;;;;;5.83;1.70;;;;;;;7.71;86.59;99610.39;2122574;83;21025;-84
2023/01/05 14:05:54;;;;;;;3.83;1.85;;;;;;;7.65;86.50;99606.58;2167923;81;20996;-82
2023/01/05 14:09:06;;;;;;;3.47;1.40;;;;;;;7.59;86.33;99627.84;2155530;81;20942;-84
2023/01/05 14:12:15;;;;;;;4.00;1.60;;;;;;;7.54;85.96;99634.09;2169415;81;20990;-83
2023/01/05 14:15:41;;;;;;;5.25;2.08;;;;;;;7.46;86.28;99651.24;2154477;81;21099;-83
2023/01/05 14:18:50;;;;;;;4.85;1.87;;;;;;;7.34;87.01;99655.95;2166367;81;21012;-81
2023/01/05 14:21:58;;;;;;;5.97;2.10;;;;;;;7.23;86.59;99660.67;2152488;82;21056;-84
2023/01/05 14:25:42;;;;;;;2.33;1.85;;;;;;;7.15;86.25;99654.38;2157628;81;20983;-83
2023/01/05 14:28:46;;;;;;;7.22;2.30;;;;;;;7.14;86.72;99675.13;2166268;81;20969;-82
2023/01/05 14:31:47;;;;;;;8.15;2.98;;;;;;;7.14;86.70;99684.86;2163397;81;21016;-82
2023/01/05 14:35:12;;;;;;;4.80;1.82;;;;;;;7.12;86.91;99682.39;2148731;82;21435;-82
2023/01/05 14:38:21;;;;;;;5.10;2.10;;;;;;;7.14;86.33;99687.00;2170150;81;20996;-83
2023/01/05 14:41:25;;;;;;;7.58;1.98;;;;;;;7.17;86.42;99697.25;2158605;80;20985;-81
2023/01/05 14:44:41;;;;;;;4.42;1.95;;;;;;;7.18;86.43;99704.20;2127817;80;21012;-84
2023/01/05 14:47:47;;;;;;;4.42;1.80;;;;;;;7.20;86.25;99696.11;2182821;78;21079;-83
2023/01/05 14:50:54;;;;;;;4.95;2.17;;;;;;;7.23;85.87;99709.48;2210078;78;21576;-83
2023/01/05 14:54:01;;;;;;;5.40;1.87;;;;;;;7.25;84.20;99705.71;2206254;78;21594;-82
2023/01/05 14:57:37;;;;;;;4.90;1.80;;;;;;;7.29;83.98;99726.02;2209576;80;21407;-83
2023/01/05 15:00:51;;;;;;;4.22;1.98;;;;;;;7.30;83.88;99740.89;2204924;78;21147;-83
2023/01/05 15:03:58;;;;;;;4.58;1.82;;;;;;;7.30;83.33;99740.89;2214072;78;22082;-87
2023/01/05 15:07:39;;;;;;;5.03;1.80;;;;;;;7.28;82.03;99722.55;2207548;78;20993;-89
2023/01/05 15:11:19;;;;;;;3.85;1.90;;;;;;;7.25;81.15;99750.58;2213395;80;21016;-83
2023/01/05 15:14:38;;;;;;;4.72;2.33;;;;;;;7.24;81.46;99744.15;2198148;80;21004;-86
2023/01/05 15:18:01;;;;;;;4.90;2.20;;;;;;;7.21;80.46;99745.75;2195299;79;21060;-82
2023/01/05 15:21:33;;;;;;;5.85;1.82;;;;;;;7.22;80.51;99769.86;2200800;79;21563;-82